createdAt,value
2022-08-07T17:58:46.538Z,32.68
2022-08-07T18:01:34.802Z,32.82
2022-08-07T18:04:24.656Z,32.73
2022-08-07T18:07:20.881Z,32.71
2022-08-07T18:10:05.775Z,32.83
2022-08-07T18:12:56.123Z,32.62
2022-08-07T18:15:32.658Z,32.82
2022-08-07T18:18:45.476Z,32.89
2022-08-07T18:21:37.319Z,32.98
2022-08-07T18:24:02.064Z,33.13
2022-08-07T18:27:09.899Z,33.02
2022-08-07T18:30:06.279Z,33.18
2022-08-07T18:33:38.891Z,33.09
2022-08-07T18:36:33.866Z,32.95
2022-08-07T18:40:08.670Z,32.62
2022-08-07T18:42:22.200Z,32.60
2022-08-07T18:45:43.342Z,32.51
2022-08-07T18:48:01.094Z,32.55
2022-08-07T18:51:03.018Z,32.45
2022-08-07T18:54:05.687Z,32.43
2022-08-07T18:57:29.871Z,32.47
2022-08-07T19:00:04.401Z,32.53
2022-08-07T19:03:00.239Z,32.55
2022-08-07T19:06:02.385Z,32.61
2022-08-07T19:08:30.108Z,32.59
2022-08-07T19:11:35.072Z,32.48
2022-08-07T19:14:11.650Z,32.66
2022-08-07T19:17:06.388Z,32.73
2022-08-07T19:19:48.830Z,32.62
2022-08-07T19:22:31.395Z,32.62
2022-08-07T19:25:05.770Z,32.46
2022-08-07T19:30:56.778Z,32.28
2022-08-07T19:31:00.843Z,32.62
2022-08-07T19:33:33.496Z,32.76
2022-08-07T19:36:05.240Z,32.67
2022-08-07T19:38:53.273Z,32.72
2022-08-07T19:41:44.465Z,32.53
2022-08-07T19:44:21.116Z,32.58
2022-08-07T19:46:57.561Z,32.36
2022-08-07T19:49:56.715Z,32.33
2022-08-07T19:52:22.610Z,32.37
2022-08-07T19:54:55.756Z,32.23
2022-08-07T19:58:00.143Z,32.09
2022-08-07T20:00:28.957Z,32.15
2022-08-07T20:03:02.963Z,32.34
2022-08-07T20:06:00.071Z,32.23
2022-08-07T20:08:28.441Z,32.14
2022-08-07T20:11:09.997Z,32.24
2022-08-07T20:13:43.443Z,32.14
2022-08-07T20:16:35.754Z,32.36
2022-08-07T20:19:10.584Z,32.46
2022-08-07T20:21:46.853Z,32.66
2022-08-07T20:24:20.632Z,32.36
2022-08-07T20:26:54.736Z,32.26
2022-08-07T20:29:49.051Z,32.09
2022-08-07T20:32:22.305Z,32.03
2022-08-07T20:34:52.785Z,31.99
2022-08-07T20:37:29.700Z,31.92
2022-08-07T20:40:31.114Z,31.88
2022-08-07T20:42:57.929Z,32.18
2022-08-07T20:45:32.978Z,32.47
2022-08-07T20:48:25.809Z,32.78
2022-08-07T20:51:00.640Z,33.05
2022-08-07T20:54:02.967Z,33.25
2022-08-07T20:56:26.891Z,33.23
2022-08-07T20:59:02.498Z,33.39
2022-08-07T21:01:45.851Z,33.14
2022-08-07T21:04:27.946Z,33.27
2022-08-07T21:07:04.490Z,33.32
2022-08-07T21:09:53.245Z,32.91
2022-08-07T21:12:31.641Z,32.58
2022-08-07T21:15:07.217Z,31.94
2022-08-07T21:18:17.097Z,32.07
2022-08-07T21:20:30.066Z,32.62
2022-08-07T21:23:07.414Z,32.28
2022-08-07T21:26:01.368Z,31.57
2022-08-07T21:28:50.193Z,31.15
2022-08-07T21:32:41.841Z,30.99
2022-08-07T21:34:31.766Z,30.73
2022-08-07T21:37:08.350Z,30.57
2022-08-07T21:39:51.710Z,30.61
2022-08-07T21:42:42.721Z,30.73
2022-08-07T21:46:10.269Z,30.75
2022-08-07T21:48:28.787Z,31.01
2022-08-07T21:51:20.456Z,31.07
2022-08-07T21:54:00.196Z,31.17
2022-08-07T21:56:46.955Z,30.98
2022-08-07T21:59:36.223Z,31.20
2022-08-07T22:02:28.519Z,31.08
2022-08-07T22:05:03.905Z,30.79
2022-08-07T22:07:58.921Z,30.56
2022-08-07T22:10:33.627Z,30.43
2022-08-07T22:13:08.990Z,30.31
2022-08-07T22:16:42.409Z,30.37
2022-08-07T22:18:38.434Z,30.39
2022-08-07T22:21:19.275Z,30.26
2022-08-07T22:23:56.213Z,29.81
2022-08-07T22:26:31.375Z,29.61
2022-08-07T22:29:08.908Z,29.53
2022-08-07T22:32:03.466Z,29.72
2022-08-07T22:34:52.883Z,29.72
2022-08-07T22:38:04.490Z,29.66
2022-08-07T22:40:31.016Z,29.85
2022-08-07T22:43:08.860Z,30.43
2022-08-07T22:46:40.452Z,30.68
2022-08-07T22:48:56.154Z,31.04
2022-08-07T22:51:51.897Z,31.28
2022-08-07T22:55:17.331Z,31.46
2022-08-07T22:58:05.530Z,31.47
2022-08-07T23:00:41.825Z,31.54
2022-08-07T23:03:57.885Z,31.80
2022-08-07T23:06:56.098Z,31.90
2022-08-07T23:10:03.848Z,31.93
2022-08-07T23:12:50.553Z,32.06
2022-08-07T23:16:04.926Z,32.00
2022-08-07T23:18:27.565Z,31.97
2022-08-07T23:21:16.294Z,31.96
2022-08-07T23:24:17.467Z,31.88
2022-08-07T23:26:59.395Z,31.76
2022-08-07T23:30:37.889Z,31.88
2022-08-07T23:34:20.818Z,31.88
2022-08-07T23:36:07.806Z,31.84
2022-08-07T23:38:56.265Z,31.74
2022-08-07T23:41:47.538Z,31.55
2022-08-07T23:44:41.868Z,31.63
2022-08-07T23:47:46.453Z,31.69
2022-08-07T23:50:38.108Z,31.67
2022-08-07T23:53:19.637Z,31.58
2022-08-07T23:55:57.289Z,31.45
2022-08-07T23:58:37.525Z,31.41
